createdAt,value
2023-03-30T00:02:23.550Z,8.55
2023-03-30T00:04:51.386Z,10.20
2023-03-30T00:07:19.460Z,8.50
2023-03-30T00:09:46.521Z,5.78
2023-03-30T00:12:20.575Z,9.57
2023-03-30T00:14:47.688Z,8.00
2023-03-30T00:17:14.705Z,7.18
2023-03-30T00:19:41.777Z,8.23
2023-03-30T00:22:09.110Z,9.40
2023-03-30T00:24:36.718Z,8.02
2023-03-30T00:27:04.321Z,9.23
2023-03-30T00:29:31.532Z,11.02
2023-03-30T00:31:58.721Z,10.63
2023-03-30T00:34:25.823Z,8.68
2023-03-30T00:36:53.412Z,8.88
2023-03-30T00:39:22.756Z,9.57
2023-03-30T00:41:49.842Z,8.23
2023-03-30T00:44:35.640Z,7.50
2023-03-30T00:47:02.700Z,8.77
2023-03-30T00:49:31.931Z,9.98
2023-03-30T00:51:59.184Z,10.95
2023-03-30T00:54:26.236Z,7.65
2023-03-30T00:56:53.355Z,10.23
2023-03-30T00:59:20.452Z,10.40
2023-03-30T01:01:50.107Z,9.88
2023-03-30T01:04:17.267Z,6.53
2023-03-30T01:06:46.278Z,6.78
2023-03-30T01:09:13.928Z,9.10
2023-03-30T01:11:41.008Z,7.70
2023-03-30T01:14:09.200Z,13.00
2023-03-30T01:16:36.347Z,13.02
2023-03-30T01:19:08.273Z,14.02
2023-03-30T01:21:55.458Z,15.57
2023-03-30T01:24:42.874Z,7.95
2023-03-30T01:27:15.883Z,8.35
2023-03-30T01:29:45.180Z,8.70
2023-03-30T01:32:30.839Z,9.93
2023-03-30T01:35:00.752Z,6.82
2023-03-30T01:37:27.857Z,6.28
2023-03-30T01:40:00.792Z,9.07
2023-03-30T01:42:40.383Z,11.32
2023-03-30T01:45:10.503Z,8.38
2023-03-30T01:47:39.128Z,10.13
2023-03-30T01:50:06.522Z,14.25
2023-03-30T01:52:38.553Z,12.68
2023-03-30T01:55:08.704Z,11.65
2023-03-30T01:57:46.938Z,7.85
2023-03-30T02:00:14.696Z,12.60
2023-03-30T02:02:43.019Z,9.52
2023-03-30T02:05:10.408Z,9.00
2023-03-30T02:07:37.989Z,11.27
2023-03-30T02:10:05.624Z,9.57
2023-03-30T02:12:32.726Z,14.05
2023-03-30T02:15:01.350Z,8.05
2023-03-30T02:17:29.148Z,11.75
2023-03-30T02:19:57.991Z,9.05
2023-03-30T02:22:25.194Z,8.02
2023-03-30T02:24:53.796Z,6.93
2023-03-30T02:27:21.982Z,12.63
2023-03-30T02:29:49.232Z,13.45
2023-03-30T02:32:20.265Z,8.40
2023-03-30T02:35:10.169Z,14.25
2023-03-30T02:37:41.321Z,13.77
2023-03-30T02:40:14.699Z,10.80
2023-03-30T02:43:00.874Z,10.48
2023-03-30T02:45:51.088Z,8.90
2023-03-30T02:48:21.551Z,12.27
2023-03-30T02:51:08.742Z,16.45
2023-03-30T02:53:46.014Z,10.10
2023-03-30T02:56:15.914Z,13.68
2023-03-30T02:58:43.733Z,11.48
2023-03-30T03:01:23.577Z,9.95
2023-03-30T03:03:51.098Z,9.13
2023-03-30T03:06:18.294Z,9.98
2023-03-30T03:08:48.096Z,12.23
2023-03-30T03:11:15.693Z,13.57
2023-03-30T03:13:42.750Z,12.10
2023-03-30T03:16:12.119Z,18.80
2023-03-30T03:18:39.901Z,11.65
2023-03-30T03:21:07.556Z,10.43
2023-03-30T03:23:35.278Z,15.00
2023-03-30T03:26:02.464Z,15.02
2023-03-30T03:28:29.901Z,13.55
2023-03-30T03:30:58.371Z,15.52
2023-03-30T03:33:25.813Z,14.27
2023-03-30T03:35:54.098Z,10.38
2023-03-30T03:38:22.064Z,13.13
2023-03-30T03:40:56.219Z,15.80
2023-03-30T03:43:23.331Z,12.05
2023-03-30T03:45:50.673Z,12.80
2023-03-30T03:48:18.156Z,13.88
2023-03-30T03:50:45.585Z,10.15
2023-03-30T03:53:12.842Z,13.75
2023-03-30T03:55:39.912Z,14.70
2023-03-30T03:58:07.965Z,12.23
2023-03-30T04:00:35.251Z,19.90
2023-03-30T04:03:04.653Z,14.68
2023-03-30T04:05:32.053Z,15.50
2023-03-30T04:07:59.210Z,16.60
2023-03-30T04:10:26.405Z,15.75
2023-03-30T04:12:55.841Z,13.50
2023-03-30T04:15:23.343Z,15.05
2023-03-30T04:17:57.668Z,15.40
2023-03-30T04:20:25.559Z,15.05
2023-03-30T04:22:53.480Z,9.77
2023-03-30T04:25:22.776Z,8.98
2023-03-30T04:27:51.230Z,14.40
2023-03-30T04:30:18.560Z,13.95
2023-03-30T04:32:47.146Z,11.77
2023-03-30T04:35:14.380Z,14.50
2023-03-30T04:37:42.243Z,12.45
2023-03-30T04:40:09.734Z,13.70
2023-03-30T04:42:38.205Z,12.35
2023-03-30T04:45:06.154Z,13.23
2023-03-30T04:47:33.341Z,13.93
2023-03-30T04:50:01.159Z,12.13
2023-03-30T04:52:28.224Z,12.20
2023-03-30T04:54:55.448Z,11.43
2023-03-30T04:57:22.605Z,10.18
2023-03-30T04:59:49.700Z,13.68
2023-03-30T05:02:16.873Z,11.07
2023-03-30T05:04:44.054Z,9.98
2023-03-30T05:07:11.172Z,15.27
2023-03-30T05:09:38.295Z,17.88
2023-03-30T05:12:05.431Z,12.27
2023-03-30T05:14:32.494Z,16.75
2023-03-30T05:16:59.618Z,14.75
2023-03-30T05:19:26.780Z,12.50
2023-03-30T05:21:53.920Z,22.67
2023-03-30T05:24:21.108Z,11.68
2023-03-30T05:26:48.170Z,14.15
2023-03-30T05:29:15.645Z,14.07
2023-03-30T05:31:42.706Z,12.02
2023-03-30T05:34:10.003Z,18.02
2023-03-30T05:36:37.586Z,23.80
2023-03-30T05:39:05.309Z,13.82
2023-03-30T05:41:32.441Z,15.07
2023-03-30T05:43:59.568Z,14.05
2023-03-30T05:46:27.839Z,14.35
2023-03-30T05:48:54.966Z,12.35
2023-03-30T05:51:22.069Z,10.45
2023-03-30T05:53:49.134Z,14.75
2023-03-30T05:56:16.709Z,10.27
2023-03-30T05:58:43.784Z,11.73
2023-03-30T06:01:12.128Z,19.23
2023-03-30T06:03:39.802Z,13.43
2023-03-30T06:06:07.917Z,12.73
2023-03-30T06:08:34.967Z,12.05
2023-03-30T06:11:02.474Z,15.85
2023-03-30T06:13:29.843Z,18.50
2023-03-30T06:15:57.582Z,17.73
2023-03-30T06:18:25.008Z,21.27
2023-03-30T06:20:52.149Z,15.23
2023-03-30T06:23:19.203Z,15.35
2023-03-30T06:25:47.118Z,15.07
2023-03-30T06:28:14.351Z,22.23
2023-03-30T06:30:42.362Z,19.48
2023-03-30T06:33:09.740Z,26.05
2023-03-30T06:35:36.989Z,15.38
2023-03-30T06:38:04.381Z,22.05
2023-03-30T06:40:31.466Z,18.90
2023-03-30T06:42:58.552Z,26.40
2023-03-30T06:45:25.649Z,20.25
2023-03-30T06:47:52.837Z,16.52
2023-03-30T06:50:19.941Z,17.20
2023-03-30T06:52:47.158Z,10.95
2023-03-30T06:55:14.361Z,19.52
2023-03-30T06:57:41.533Z,16.15
2023-03-30T07:00:13.528Z,20.77
2023-03-30T07:02:41.517Z,13.70
2023-03-30T07:05:08.912Z,15.95
2023-03-30T07:07:36.052Z,13.93
2023-03-30T07:10:09.994Z,15.38
2023-03-30T07:12:41.296Z,18.98
2023-03-30T07:15:08.996Z,17.30
2023-03-30T07:17:36.400Z,19.38
2023-03-30T07:20:04.038Z,19.77
2023-03-30T07:22:31.623Z,14.07
2023-03-30T07:24:58.728Z,22.23
2023-03-30T07:27:26.019Z,15.43
2023-03-30T07:29:53.119Z,14.07
2023-03-30T07:32:20.299Z,18.52
2023-03-30T07:34:47.481Z,19.80
2023-03-30T07:37:20.228Z,17.52
2023-03-30T07:39:47.900Z,22.33
2023-03-30T07:42:15.459Z,22.15
2023-03-30T07:44:42.526Z,19.40
2023-03-30T07:47:09.820Z,16.85
2023-03-30T07:49:36.957Z,18.83
2023-03-30T07:52:04.033Z,15.27
2023-03-30T07:54:31.127Z,13.10
2023-03-30T07:56:58.271Z,13.85
2023-03-30T07:59:25.529Z,14.77
2023-03-30T08:01:54.586Z,17.25
2023-03-30T08:04:26.235Z,23.08
2023-03-30T08:06:53.926Z,20.30
2023-03-30T08:09:21.070Z,20.13
2023-03-30T08:11:48.233Z,17.48
2023-03-30T08:14:15.300Z,13.52
2023-03-30T08:16:42.332Z,16.17
2023-03-30T08:19:09.447Z,22.70
2023-03-30T08:21:36.970Z,24.20
2023-03-30T08:24:04.067Z,17.42
2023-03-30T08:26:31.205Z,16.13
2023-03-30T08:28:58.339Z,19.00
2023-03-30T08:31:25.962Z,20.50
2023-03-30T08:33:53.115Z,17.45
2023-03-30T08:36:20.722Z,20.88
2023-03-30T08:38:47.800Z,17.90
2023-03-30T08:41:30.377Z,20.38
2023-03-30T08:44:05.898Z,17.45
2023-03-30T08:46:33.005Z,15.50
2023-03-30T08:49:01.184Z,17.45
2023-03-30T08:51:28.681Z,16.08
2023-03-30T08:53:56.546Z,21.30
2023-03-30T08:56:24.887Z,20.50
2023-03-30T08:59:12.193Z,14.43
2023-03-30T09:01:51.371Z,11.98
2023-03-30T09:04:21.620Z,15.88
2023-03-30T09:06:52.828Z,12.40
2023-03-30T09:09:20.517Z,10.73
2023-03-30T09:11:49.030Z,10.70
2023-03-30T09:14:17.967Z,12.75
2023-03-30T09:17:07.521Z,11.73
2023-03-30T09:19:36.365Z,12.32
2023-03-30T09:22:03.643Z,15.30
2023-03-30T09:24:30.794Z,10.98
2023-03-30T09:27:03.327Z,9.13
2023-03-30T09:29:34.072Z,16.05
2023-03-30T09:32:06.444Z,10.85
2023-03-30T09:34:39.326Z,11.38
2023-03-30T09:37:12.723Z,7.93
2023-03-30T09:39:41.388Z,14.13
2023-03-30T09:42:16.251Z,11.70
2023-03-30T09:44:49.464Z,7.95
2023-03-30T09:47:36.724Z,11.50
2023-03-30T09:50:08.068Z,8.68
2023-03-30T09:52:37.063Z,10.90
2023-03-30T09:55:19.495Z,9.45
2023-03-30T09:57:46.601Z,10.82
2023-03-30T10:00:22.758Z,11.45
2023-03-30T10:02:57.515Z,12.45
2023-03-30T10:05:24.822Z,14.13
2023-03-30T10:07:58.766Z,11.60
2023-03-30T10:10:30.322Z,10.10
2023-03-30T10:13:17.067Z,17.35
2023-03-30T10:15:46.050Z,11.35
2023-03-30T10:18:33.424Z,10.50
2023-03-30T10:21:08.092Z,14.77
2023-03-30T10:23:39.796Z,8.88
2023-03-30T10:26:10.140Z,9.07
2023-03-30T10:31:05.437Z,10.77
2023-03-30T10:33:32.523Z,8.45
2023-03-30T10:36:03.603Z,8.18
2023-03-30T10:38:32.296Z,9.75
2023-03-30T10:41:02.999Z,8.43
2023-03-30T10:43:33.123Z,10.02
2023-03-30T10:46:16.764Z,9.65
2023-03-30T10:48:49.470Z,9.50
2023-03-30T10:53:47.425Z,9.35
2023-03-30T10:56:23.519Z,9.30
2023-03-30T10:58:59.580Z,9.25
2023-03-30T11:01:38.859Z,11.00
2023-03-30T11:04:23.583Z,9.02
2023-03-30T11:06:53.137Z,10.40
2023-03-30T11:09:21.937Z,7.50
2023-03-30T11:11:52.893Z,9.60
2023-03-30T11:14:21.990Z,6.78
2023-03-30T11:16:54.052Z,7.25
2023-03-30T11:19:23.280Z,9.23
2023-03-30T11:21:59.023Z,5.43
2023-03-30T11:24:26.976Z,6.93
2023-03-30T11:27:00.033Z,5.00
2023-03-30T11:29:37.611Z,5.97
2023-03-30T11:32:23.522Z,3.78
2023-03-30T11:35:06.023Z,5.53
2023-03-30T11:38:11.591Z,7.07
2023-03-30T11:40:38.614Z,8.32
2023-03-30T11:43:05.687Z,3.95
2023-03-30T11:45:36.091Z,3.22
2023-03-30T11:48:26.993Z,8.82
2023-03-30T11:51:04.008Z,5.00
2023-03-30T11:53:48.720Z,3.22
2023-03-30T11:56:24.532Z,3.58
2023-03-30T11:59:06.453Z,5.60
2023-03-30T12:02:06.051Z,1.77
2023-03-30T12:04:38.663Z,2.80
2023-03-30T12:07:05.910Z,4.28
2023-03-30T12:09:44.773Z,3.05
2023-03-30T12:12:17.958Z,1.80
2023-03-30T12:14:51.079Z,1.45
2023-03-30T12:17:25.603Z,1.98
2023-03-30T12:19:56.491Z,2.40
2023-03-30T12:22:23.757Z,4.05
2023-03-30T12:24:52.548Z,5.70
2023-03-30T12:27:19.591Z,2.28
2023-03-30T12:30:02.460Z,1.95
2023-03-30T12:32:30.863Z,4.35
2023-03-30T12:34:58.438Z,3.03
2023-03-30T12:37:35.532Z,0.73
2023-03-30T12:40:09.122Z,3.28
2023-03-30T12:42:39.524Z,0.50
2023-03-30T12:47:49.173Z,2.17
2023-03-30T12:50:28.266Z,2.15
2023-03-30T12:53:08.903Z,3.95
2023-03-30T12:55:54.143Z,1.65
2023-03-30T12:58:35.384Z,1.13
2023-03-30T13:01:07.506Z,3.55
2023-03-30T13:06:01.800Z,1.98
2023-03-30T13:08:39.251Z,2.72
2023-03-30T13:11:13.625Z,3.17
2023-03-30T13:13:46.776Z,3.17
2023-03-30T13:16:14.514Z,3.78
2023-03-30T13:18:54.773Z,2.90
2023-03-30T13:21:25.556Z,8.60
2023-03-30T13:24:04.266Z,4.63
2023-03-30T13:26:39.978Z,3.70
2023-03-30T13:29:08.449Z,4.15
2023-03-30T13:31:40.153Z,2.45
2023-03-30T13:34:11.489Z,3.92
2023-03-30T13:36:43.648Z,2.88
2023-03-30T13:39:18.834Z,2.97
2023-03-30T13:41:58.752Z,2.20
2023-03-30T13:44:33.098Z,3.10
2023-03-30T13:47:00.398Z,4.03
2023-03-30T13:49:27.462Z,3.17
2023-03-30T13:51:55.089Z,2.47
2023-03-30T13:54:24.706Z,3.20
2023-03-30T13:57:10.399Z,2.53
2023-03-30T13:59:38.242Z,3.78
2023-03-30T14:02:05.603Z,3.13
2023-03-30T14:04:33.591Z,3.50
2023-03-30T14:07:05.527Z,3.28
2023-03-30T14:09:32.625Z,3.85
2023-03-30T14:12:00.708Z,3.63
2023-03-30T14:14:28.191Z,2.42
2023-03-30T14:16:55.245Z,2.92
2023-03-30T14:19:23.792Z,1.58
2023-03-30T14:21:52.874Z,3.60
2023-03-30T14:24:21.099Z,2.80
2023-03-30T14:26:49.084Z,4.18
2023-03-30T14:29:24.653Z,2.80
2023-03-30T14:32:08.113Z,1.55
2023-03-30T14:34:36.635Z,2.72
2023-03-30T14:37:04.521Z,2.28
2023-03-30T14:39:31.844Z,3.50
2023-03-30T14:41:59.710Z,3.75
2023-03-30T14:44:26.833Z,3.95
2023-03-30T14:46:53.906Z,3.33
2023-03-30T14:49:22.333Z,2.03
2023-03-30T14:51:50.387Z,2.90
2023-03-30T14:54:18.075Z,3.65
2023-03-30T14:56:46.430Z,1.60
2023-03-30T14:59:13.512Z,2.38
2023-03-30T15:01:40.865Z,3.13
2023-03-30T15:04:11.794Z,5.32
2023-03-30T15:06:38.952Z,3.42
2023-03-30T15:09:07.991Z,3.17
2023-03-30T15:11:35.311Z,5.25
2023-03-30T15:14:03.885Z,2.22
2023-03-30T15:16:32.874Z,2.92
2023-03-30T15:19:07.143Z,4.97
2023-03-30T15:21:34.820Z,1.98
2023-03-30T15:24:01.846Z,1.40
2023-03-30T15:26:28.976Z,2.95
2023-03-30T15:28:59.056Z,4.90
2023-03-30T15:31:26.738Z,9.07
2023-03-30T15:33:54.613Z,2.45
2023-03-30T15:36:22.936Z,4.63
2023-03-30T15:38:53.636Z,1.95
2023-03-30T15:41:24.629Z,3.88
2023-03-30T15:43:55.778Z,5.22
2023-03-30T15:46:22.949Z,4.38
2023-03-30T15:48:50.940Z,5.53
2023-03-30T15:51:20.605Z,4.60
2023-03-30T15:53:50.491Z,2.67
2023-03-30T15:56:36.348Z,3.83
2023-03-30T15:59:03.488Z,3.97
2023-03-30T16:01:49.396Z,6.05
2023-03-30T16:04:17.306Z,5.88
2023-03-30T16:06:46.689Z,2.75
2023-03-30T16:09:14.452Z,5.15
2023-03-30T16:11:41.980Z,5.60
2023-03-30T16:14:11.432Z,6.93
2023-03-30T16:16:38.551Z,4.90
2023-03-30T16:19:07.242Z,6.40
2023-03-30T16:21:34.299Z,3.28
2023-03-30T16:24:02.860Z,5.18
2023-03-30T16:26:30.176Z,4.47
2023-03-30T16:28:57.201Z,6.63
2023-03-30T16:31:24.433Z,3.40
2023-03-30T16:33:51.791Z,3.97
2023-03-30T16:36:19.952Z,4.03
2023-03-30T16:38:47.122Z,3.45
2023-03-30T16:41:19.330Z,2.78
2023-03-30T16:43:46.409Z,2.20
2023-03-30T16:46:14.371Z,2.58
2023-03-30T16:48:41.469Z,7.25
2023-03-30T16:51:09.553Z,4.35
2023-03-30T16:53:36.632Z,4.35
2023-03-30T16:56:03.728Z,5.70
2023-03-30T16:58:30.857Z,4.45
2023-03-30T17:01:04.046Z,5.97
2023-03-30T17:03:31.890Z,5.43
2023-03-30T17:05:58.962Z,6.22
2023-03-30T17:08:26.764Z,6.95
2023-03-30T17:10:54.556Z,4.35
2023-03-30T17:13:21.677Z,5.30
2023-03-30T17:15:48.761Z,4.57
2023-03-30T17:18:17.095Z,9.77
2023-03-30T17:20:54.068Z,7.70
2023-03-30T17:23:21.469Z,7.78
2023-03-30T17:25:49.525Z,8.68
2023-03-30T17:28:21.138Z,5.75
2023-03-30T17:30:48.328Z,3.50
2023-03-30T17:33:15.712Z,6.97
2023-03-30T17:35:43.831Z,4.93
2023-03-30T17:38:10.957Z,3.63
2023-03-30T17:40:38.868Z,11.05
2023-03-30T17:43:10.693Z,8.13
2023-03-30T17:45:38.167Z,4.85
2023-03-30T17:48:05.855Z,3.67
2023-03-30T17:50:33.803Z,9.18
2023-03-30T17:53:01.088Z,7.85
2023-03-30T17:55:28.764Z,7.47
2023-03-30T17:57:55.857Z,7.13
2023-03-30T18:00:29.988Z,5.75
2023-03-30T18:02:57.452Z,5.57
2023-03-30T18:05:25.443Z,7.88
2023-03-30T18:07:52.815Z,9.68
2023-03-30T18:10:24.186Z,8.48
2023-03-30T18:12:51.511Z,11.70
2023-03-30T18:15:19.119Z,8.70
2023-03-30T18:17:46.424Z,7.25
2023-03-30T18:20:17.569Z,8.98
2023-03-30T18:22:44.730Z,7.97
2023-03-30T18:25:21.948Z,7.72
2023-03-30T18:27:56.756Z,5.72
2023-03-30T18:30:41.733Z,6.85
2023-03-30T18:33:08.901Z,6.18
2023-03-30T18:35:36.455Z,9.45
2023-03-30T18:38:03.694Z,5.20
2023-03-30T18:40:32.872Z,7.32
2023-03-30T18:43:00.273Z,6.65
2023-03-30T18:45:28.184Z,8.50
2023-03-30T18:47:55.890Z,7.13
2023-03-30T18:50:29.521Z,6.80
2023-03-30T18:52:56.722Z,5.55
2023-03-30T18:55:23.750Z,4.68
2023-03-30T18:57:50.772Z,3.80
2023-03-30T19:00:19.408Z,7.03
2023-03-30T19:02:46.568Z,5.45
2023-03-30T19:05:13.675Z,6.20
2023-03-30T19:07:40.980Z,4.55
2023-03-30T19:10:10.302Z,6.43
2023-03-30T19:12:37.807Z,5.10
2023-03-30T19:15:05.517Z,4.90
2023-03-30T19:17:32.587Z,7.95
2023-03-30T19:19:59.705Z,9.38
2023-03-30T19:22:26.714Z,9.65
2023-03-30T19:24:53.824Z,5.00
2023-03-30T19:27:20.921Z,8.57
2023-03-30T19:29:47.952Z,8.55
2023-03-30T19:32:16.529Z,7.68
2023-03-30T19:34:43.613Z,7.68
2023-03-30T19:37:10.863Z,4.32
2023-03-30T19:39:37.925Z,9.05
2023-03-30T19:42:05.295Z,11.23
2023-03-30T19:44:33.208Z,11.18
2023-03-30T19:47:00.255Z,7.13
2023-03-30T19:49:27.309Z,5.78
2023-03-30T19:51:54.327Z,7.28
2023-03-30T19:54:21.434Z,8.25
2023-03-30T19:56:48.580Z,6.07
2023-03-30T19:59:15.850Z,12.00
2023-03-30T20:01:42.938Z,6.70
2023-03-30T20:04:10.034Z,6.07
2023-03-30T20:06:37.065Z,8.75
2023-03-30T20:09:04.517Z,5.65
2023-03-30T20:11:31.891Z,12.18
2023-03-30T20:13:58.951Z,7.90
2023-03-30T20:16:25.994Z,9.40
2023-03-30T20:18:53.369Z,8.18
2023-03-30T20:21:21.278Z,6.90
2023-03-30T20:23:48.378Z,4.22
2023-03-30T20:26:19.351Z,6.47
2023-03-30T20:28:46.958Z,11.38
2023-03-30T20:31:14.133Z,9.27
2023-03-30T20:33:41.366Z,6.97
2023-03-30T20:36:08.642Z,8.52
2023-03-30T20:38:39.497Z,14.70
2023-03-30T20:41:07.093Z,9.27
2023-03-30T20:46:14.068Z,8.63
2023-03-30T20:48:41.265Z,8.70
2023-03-30T20:51:14.759Z,7.97
2023-03-30T20:53:42.349Z,7.25
2023-03-30T20:56:10.291Z,8.95
2023-03-30T20:58:37.493Z,6.10
2023-03-30T21:01:11.325Z,12.10
2023-03-30T21:03:41.116Z,22.45
2023-03-30T21:06:08.802Z,11.70
2023-03-30T21:08:35.970Z,6.53
2023-03-30T21:11:03.215Z,9.38
2023-03-30T21:13:30.437Z,7.75
2023-03-30T21:15:58.386Z,9.15
2023-03-30T21:18:25.892Z,11.15
2023-03-30T21:20:53.025Z,12.18
2023-03-30T21:23:21.353Z,8.65
2023-03-30T21:25:48.463Z,11.60
2023-03-30T21:28:15.526Z,11.05
2023-03-30T21:30:42.582Z,12.82
2023-03-30T21:33:09.653Z,6.15
2023-03-30T21:35:36.773Z,9.48
2023-03-30T21:38:04.267Z,8.68
2023-03-30T21:40:31.438Z,10.35
2023-03-30T21:42:58.498Z,7.10
2023-03-30T21:45:25.623Z,10.77
2023-03-30T21:47:52.753Z,8.88
2023-03-30T21:50:19.908Z,12.15
2023-03-30T21:52:47.255Z,11.18
2023-03-30T21:55:14.277Z,5.13
2023-03-30T21:57:41.373Z,8.20
2023-03-30T22:00:09.961Z,6.97
2023-03-30T22:02:37.230Z,12.05
2023-03-30T22:05:04.366Z,7.43
2023-03-30T22:07:31.449Z,10.35
2023-03-30T22:09:59.708Z,11.52
2023-03-30T22:12:26.800Z,6.00
2023-03-30T22:14:53.858Z,9.18
2023-03-30T22:17:21.041Z,8.75
2023-03-30T22:19:51.845Z,6.80
2023-03-30T22:22:19.207Z,9.35
2023-03-30T22:24:46.273Z,12.30
2023-03-30T22:27:13.945Z,6.30
2023-03-30T22:29:41.016Z,10.95
2023-03-30T22:32:09.812Z,8.13
2023-03-30T22:34:37.628Z,11.13
2023-03-30T22:37:04.675Z,6.95
2023-03-30T22:39:31.710Z,9.88
2023-03-30T22:41:58.797Z,9.65
2023-03-30T22:44:25.938Z,7.05
2023-03-30T22:46:53.822Z,10.38
2023-03-30T22:49:21.087Z,9.90
2023-03-30T22:51:53.287Z,12.00
2023-03-30T22:54:20.466Z,12.55
2023-03-30T22:56:48.641Z,5.40
2023-03-30T22:59:15.769Z,5.90
2023-03-30T23:01:42.937Z,9.50
2023-03-30T23:04:10.006Z,10.02
2023-03-30T23:06:37.224Z,8.98
2023-03-30T23:09:04.738Z,5.43
2023-03-30T23:11:31.982Z,6.15
2023-03-30T23:14:05.990Z,8.30
2023-03-30T23:16:34.163Z,7.55
2023-03-30T23:19:01.308Z,7.47
2023-03-30T23:21:34.666Z,5.45
2023-03-30T23:24:02.450Z,5.32
2023-03-30T23:26:29.812Z,6.90
2023-03-30T23:28:57.126Z,4.97
2023-03-30T23:31:27.253Z,6.75
2023-03-30T23:33:54.974Z,8.85
2023-03-30T23:36:22.501Z,6.85
2023-03-30T23:38:49.733Z,3.42
2023-03-30T23:41:17.322Z,6.18
2023-03-30T23:43:44.445Z,6.20
2023-03-30T23:46:11.875Z,5.95
2023-03-30T23:48:39.103Z,6.82
2023-03-30T23:51:06.657Z,6.68
2023-03-30T23:53:33.712Z,6.75
2023-03-30T23:56:05.810Z,7.65
2023-03-30T23:58:33.056Z,7.35
